sensor_id;sensor_type;location;lat;lon;timestamp;temperature;humidity
40289;DHT22;28991;52.028;5.526;2022-09-12T00:00:30;24.40;56.60
40289;DHT22;28991;52.028;5.526;2022-09-12T00:02:57;24.00;56.40
40289;DHT22;28991;52.028;5.526;2022-09-12T00:05:23;24.10;56.50
40289;DHT22;28991;52.028;5.526;2022-09-12T00:07:50;24.10;56.40
40289;DHT22;28991;52.028;5.526;2022-09-12T00:10:16;24.30;56.60
40289;DHT22;28991;52.028;5.526;2022-09-12T00:12:42;24.00;56.40
40289;DHT22;28991;52.028;5.526;2022-09-12T00:15:08;24.00;56.40
40289;DHT22;28991;52.028;5.526;2022-09-12T00:17:35;24.00;56.40
40289;DHT22;28991;52.028;5.526;2022-09-12T00:20:01;23.80;56.30
40289;DHT22;28991;52.028;5.526;2022-09-12T00:22:27;24.00;56.50
40289;DHT22;28991;52.028;5.526;2022-09-12T00:24:52;24.00;57.00
40289;DHT22;28991;52.028;5.526;2022-09-12T00:27:18;24.00;56.50
40289;DHT22;28991;52.028;5.526;2022-09-12T00:29:43;24.60;56.80
40289;DHT22;28991;52.028;5.526;2022-09-12T00:32:09;24.00;56.50
40289;DHT22;28991;52.028;5.526;2022-09-12T00:34:35;24.00;56.50
40289;DHT22;28991;52.028;5.526;2022-09-12T00:37:01;24.10;56.50
40289;DHT22;28991;52.028;5.526;2022-09-12T00:39:27;24.00;56.50
40289;DHT22;28991;52.028;5.526;2022-09-12T00:41:52;24.10;56.60
40289;DHT22;28991;52.028;5.526;2022-09-12T00:46:56;24.00;56.50
40289;DHT22;28991;52.028;5.526;2022-09-12T00:49:30;24.00;56.50
40289;DHT22;28991;52.028;5.526;2022-09-12T00:52:12;24.00;56.50
40289;DHT22;28991;52.028;5.526;2022-09-12T00:57:12;24.00;56.60
40289;DHT22;28991;52.028;5.526;2022-09-12T00:59:50;24.00;56.60
40289;DHT22;28991;52.028;5.526;2022-09-12T01:02:17;24.00;56.60
40289;DHT22;28991;52.028;5.526;2022-09-12T01:04:43;24.00;56.60
40289;DHT22;28991;52.028;5.526;2022-09-12T01:07:09;24.00;56.60
40289;DHT22;28991;52.028;5.526;2022-09-12T01:09:36;24.00;56.60
40289;DHT22;28991;52.028;5.526;2022-09-12T01:12:03;24.00;56.60
40289;DHT22;28991;52.028;5.526;2022-09-12T01:14:30;24.00;56.60
40289;DHT22;28991;52.028;5.526;2022-09-12T01:16:57;23.90;56.60
40289;DHT22;28991;52.028;5.526;2022-09-12T01:19:51;23.90;56.50
40289;DHT22;28991;52.028;5.526;2022-09-12T01:22:32;24.00;56.60
40289;DHT22;28991;52.028;5.526;2022-09-12T01:27:41;23.90;56.60
40289;DHT22;28991;52.028;5.526;2022-09-12T01:38:47;23.90;56.60
40289;DHT22;28991;52.028;5.526;2022-09-12T01:46:41;24.00;56.60
40289;DHT22;28991;52.028;5.526;2022-09-12T01:49:14;23.90;56.60
40289;DHT22;28991;52.028;5.526;2022-09-12T01:54:45;23.90;56.60
40289;DHT22;28991;52.028;5.526;2022-09-12T01:57:17;23.90;56.60
40289;DHT22;28991;52.028;5.526;2022-09-12T01:59:47;24.20;56.80
40289;DHT22;28991;52.028;5.526;2022-09-12T02:02:20;23.90;56.60
40289;DHT22;28991;52.028;5.526;2022-09-12T02:04:56;23.90;56.60
40289;DHT22;28991;52.028;5.526;2022-09-12T02:07:34;24.00;56.60
40289;DHT22;28991;52.028;5.526;2022-09-12T02:12:46;23.90;56.60
40289;DHT22;28991;52.028;5.526;2022-09-12T02:15:17;23.90;56.70
40289;DHT22;28991;52.028;5.526;2022-09-12T02:17:48;23.90;56.70
40289;DHT22;28991;52.028;5.526;2022-09-12T02:20:21;23.90;56.70
40289;DHT22;28991;52.028;5.526;2022-09-12T02:22:49;23.90;56.70
40289;DHT22;28991;52.028;5.526;2022-09-12T02:25:18;23.90;56.60
40289;DHT22;28991;52.028;5.526;2022-09-12T02:27:49;23.90;56.70
40289;DHT22;28991;52.028;5.526;2022-09-12T02:30:18;23.90;56.70
40289;DHT22;28991;52.028;5.526;2022-09-12T02:33:14;23.90;56.70
40289;DHT22;28991;52.028;5.526;2022-09-12T02:35:52;23.80;56.60
40289;DHT22;28991;52.028;5.526;2022-09-12T02:38:50;23.90;56.70
40289;DHT22;28991;52.028;5.526;2022-09-12T02:41:18;23.90;56.70
40289;DHT22;28991;52.028;5.526;2022-09-12T02:43:46;23.90;56.70
40289;DHT22;28991;52.028;5.526;2022-09-12T02:46:17;23.90;56.70
40289;DHT22;28991;52.028;5.526;2022-09-12T02:48:43;23.90;56.70
40289;DHT22;28991;52.028;5.526;2022-09-12T02:51:10;23.90;56.70
40289;DHT22;28991;52.028;5.526;2022-09-12T02:53:36;23.90;56.70
40289;DHT22;28991;52.028;5.526;2022-09-12T02:56:04;24.10;56.80
40289;DHT22;28991;52.028;5.526;2022-09-12T02:58:32;23.90;56.70
40289;DHT22;28991;52.028;5.526;2022-09-12T03:01:12;23.90;56.70
40289;DHT22;28991;52.028;5.526;2022-09-12T03:09:26;23.80;56.60
40289;DHT22;28991;52.028;5.526;2022-09-12T03:17:36;23.80;56.60
40289;DHT22;28991;52.028;5.526;2022-09-12T03:20:13;23.90;56.70
40289;DHT22;28991;52.028;5.526;2022-09-12T03:22:59;23.90;56.70
40289;DHT22;28991;52.028;5.526;2022-09-12T03:27:59;23.80;56.70
40289;DHT22;28991;52.028;5.526;2022-09-12T03:30:38;23.80;56.60
40289;DHT22;28991;52.028;5.526;2022-09-12T03:33:03;23.80;56.70
40289;DHT22;28991;52.028;5.526;2022-09-12T03:35:29;24.10;56.80
40289;DHT22;28991;52.028;5.526;2022-09-12T03:37:55;23.80;56.70
40289;DHT22;28991;52.028;5.526;2022-09-12T03:40:20;23.80;56.70
40289;DHT22;28991;52.028;5.526;2022-09-12T03:42:46;23.80;56.70
40289;DHT22;28991;52.028;5.526;2022-09-12T03:45:12;23.80;56.70
40289;DHT22;28991;52.028;5.526;2022-09-12T03:47:38;23.80;56.70
40289;DHT22;28991;52.028;5.526;2022-09-12T03:50:04;23.80;56.70
40289;DHT22;28991;52.028;5.526;2022-09-12T03:52:30;23.80;56.70
40289;DHT22;28991;52.028;5.526;2022-09-12T03:54:56;23.80;56.70
40289;DHT22;28991;52.028;5.526;2022-09-12T03:57:22;23.80;56.70
40289;DHT22;28991;52.028;5.526;2022-09-12T03:59:48;23.80;56.70
40289;DHT22;28991;52.028;5.526;2022-09-12T04:02:15;23.80;56.70
40289;DHT22;28991;52.028;5.526;2022-09-12T04:04:40;23.80;56.70
40289;DHT22;28991;52.028;5.526;2022-09-12T04:07:08;23.80;56.70
40289;DHT22;28991;52.028;5.526;2022-09-12T04:09:34;23.80;56.70
40289;DHT22;28991;52.028;5.526;2022-09-12T04:11:59;23.80;56.70
40289;DHT22;28991;52.028;5.526;2022-09-12T04:14:25;23.80;56.70
40289;DHT22;28991;52.028;5.526;2022-09-12T04:16:51;24.30;57.00
40289;DHT22;28991;52.028;5.526;2022-09-12T04:19:16;23.80;56.70
40289;DHT22;28991;52.028;5.526;2022-09-12T04:21:42;23.80;56.70
40289;DHT22;28991;52.028;5.526;2022-09-12T04:24:08;23.80;56.70
40289;DHT22;28991;52.028;5.526;2022-09-12T04:26:33;23.80;57.30
40289;DHT22;28991;52.028;5.526;2022-09-12T04:28:59;24.30;57.00
40289;DHT22;28991;52.028;5.526;2022-09-12T04:31:25;23.80;56.70
40289;DHT22;28991;52.028;5.526;2022-09-12T04:33:55;23.80;56.70
40289;DHT22;28991;52.028;5.526;2022-09-12T04:36:22;23.80;56.70
40289;DHT22;28991;52.028;5.526;2022-09-12T04:38:49;23.80;56.60
40289;DHT22;28991;52.028;5.526;2022-09-12T04:41:20;23.80;56.50
40289;DHT22;28991;52.028;5.526;2022-09-12T04:43:50;23.80;56.20
40289;DHT22;28991;52.028;5.526;2022-09-12T04:46:16;23.80;55.80
40289;DHT22;28991;52.028;5.526;2022-09-12T04:48:44;23.80;55.40
40289;DHT22;28991;52.028;5.526;2022-09-12T04:51:15;23.80;55.20
40289;DHT22;28991;52.028;5.526;2022-09-12T04:53:42;23.80;54.90
40289;DHT22;28991;52.028;5.526;2022-09-12T04:56:09;23.80;54.60
40289;DHT22;28991;52.028;5.526;2022-09-12T04:58:36;23.90;53.20
40289;DHT22;28991;52.028;5.526;2022-09-12T05:01:09;23.80;53.00
40289;DHT22;28991;52.028;5.526;2022-09-12T05:03:35;23.70;53.20
40289;DHT22;28991;52.028;5.526;2022-09-12T05:06:04;23.50;53.40
40289;DHT22;28991;52.028;5.526;2022-09-12T05:08:30;23.40;53.80
40289;DHT22;28991;52.028;5.526;2022-09-12T05:11:05;23.20;54.40
40289;DHT22;28991;52.028;5.526;2022-09-12T05:13:32;23.20;54.70
40289;DHT22;28991;52.028;5.526;2022-09-12T05:15:59;23.20;54.90
40289;DHT22;28991;52.028;5.526;2022-09-12T05:18:26;23.10;54.90
40289;DHT22;28991;52.028;5.526;2022-09-12T05:20:53;23.20;54.90
40289;DHT22;28991;52.028;5.526;2022-09-12T05:23:19;23.30;55.10
40289;DHT22;28991;52.028;5.526;2022-09-12T05:25:51;23.70;55.10
40289;DHT22;28991;52.028;5.526;2022-09-12T05:28:18;23.40;54.70
40289;DHT22;28991;52.028;5.526;2022-09-12T05:30:44;23.40;54.60
40289;DHT22;28991;52.028;5.526;2022-09-12T05:33:10;23.50;54.50
40289;DHT22;28991;52.028;5.526;2022-09-12T05:35:36;23.50;54.40
40289;DHT22;28991;52.028;5.526;2022-09-12T05:38:06;23.50;54.20
40289;DHT22;28991;52.028;5.526;2022-09-12T05:40:32;23.60;54.20
40289;DHT22;28991;52.028;5.526;2022-09-12T05:42:58;23.60;54.20
40289;DHT22;28991;52.028;5.526;2022-09-12T05:45:24;26.20;55.60
40289;DHT22;28991;52.028;5.526;2022-09-12T05:47:51;23.70;53.90
40289;DHT22;28991;52.028;5.526;2022-09-12T05:50:18;23.70;53.80
40289;DHT22;28991;52.028;5.526;2022-09-12T05:52:44;23.70;53.80
40289;DHT22;28991;52.028;5.526;2022-09-12T05:55:09;23.70;53.70
40289;DHT22;28991;52.028;5.526;2022-09-12T05:57:36;23.70;53.70
40289;DHT22;28991;52.028;5.526;2022-09-12T06:00:03;23.80;53.70
40289;DHT22;28991;52.028;5.526;2022-09-12T06:02:29;23.80;53.60
40289;DHT22;28991;52.028;5.526;2022-09-12T06:04:55;23.80;53.60
40289;DHT22;28991;52.028;5.526;2022-09-12T06:07:20;23.80;53.60
40289;DHT22;28991;52.028;5.526;2022-09-12T06:09:46;23.80;53.60
40289;DHT22;28991;52.028;5.526;2022-09-12T06:12:11;23.80;53.60
40289;DHT22;28991;52.028;5.526;2022-09-12T06:14:37;23.80;53.60
40289;DHT22;28991;52.028;5.526;2022-09-12T06:17:03;23.80;53.60
40289;DHT22;28991;52.028;5.526;2022-09-12T06:19:29;23.80;53.60
40289;DHT22;28991;52.028;5.526;2022-09-12T06:21:55;23.80;53.60
40289;DHT22;28991;52.028;5.526;2022-09-12T06:24:21;23.90;53.60
40289;DHT22;28991;52.028;5.526;2022-09-12T06:26:47;23.90;53.60
40289;DHT22;28991;52.028;5.526;2022-09-12T06:29:13;23.90;53.60
40289;DHT22;28991;52.028;5.526;2022-09-12T06:31:41;23.90;53.60
40289;DHT22;28991;52.028;5.526;2022-09-12T06:34:09;24.10;53.70
40289;DHT22;28991;52.028;5.526;2022-09-12T06:36:40;23.90;53.60
40289;DHT22;28991;52.028;5.526;2022-09-12T06:39:11;23.90;54.10
40289;DHT22;28991;52.028;5.526;2022-09-12T06:41:37;23.90;53.60
40289;DHT22;28991;52.028;5.526;2022-09-12T06:44:03;23.90;53.40
40289;DHT22;28991;52.028;5.526;2022-09-12T06:46:29;24.00;53.40
40289;DHT22;28991;52.028;5.526;2022-09-12T06:48:56;24.00;53.50
40289;DHT22;28991;52.028;5.526;2022-09-12T06:51:23;24.00;53.50
40289;DHT22;28991;52.028;5.526;2022-09-12T06:53:49;24.10;53.50
40289;DHT22;28991;52.028;5.526;2022-09-12T06:56:16;24.10;53.40
40289;DHT22;28991;52.028;5.526;2022-09-12T06:58:43;24.10;53.40
40289;DHT22;28991;52.028;5.526;2022-09-12T07:01:20;24.10;53.50
40289;DHT22;28991;52.028;5.526;2022-09-12T07:03:48;24.10;53.70
40289;DHT22;28991;52.028;5.526;2022-09-12T07:06:16;24.10;53.80
40289;DHT22;28991;52.028;5.526;2022-09-12T07:08:42;24.10;53.90
40289;DHT22;28991;52.028;5.526;2022-09-12T07:11:20;24.20;54.10
40289;DHT22;28991;52.028;5.526;2022-09-12T07:13:48;24.20;54.00
40289;DHT22;28991;52.028;5.526;2022-09-12T07:16:15;24.30;54.00
40289;DHT22;28991;52.028;5.526;2022-09-12T07:18:41;24.30;54.10
40289;DHT22;28991;52.028;5.526;2022-09-12T07:21:10;24.40;54.10
40289;DHT22;28991;52.028;5.526;2022-09-12T07:23:36;24.40;53.90
40289;DHT22;28991;52.028;5.526;2022-09-12T07:26:03;24.50;53.90
40289;DHT22;28991;52.028;5.526;2022-09-12T07:28:31;24.50;54.00
40289;DHT22;28991;52.028;5.526;2022-09-12T07:31:00;24.50;53.90
40289;DHT22;28991;52.028;5.526;2022-09-12T07:33:28;24.60;54.10
40289;DHT22;28991;52.028;5.526;2022-09-12T07:35:54;24.50;54.00
40289;DHT22;28991;52.028;5.526;2022-09-12T07:38:20;24.60;54.30
40289;DHT22;28991;52.028;5.526;2022-09-12T07:40:46;24.60;54.30
40289;DHT22;28991;52.028;5.526;2022-09-12T07:43:12;24.60;54.20
40289;DHT22;28991;52.028;5.526;2022-09-12T07:45:38;24.50;54.20
40289;DHT22;28991;52.028;5.526;2022-09-12T07:48:06;24.50;54.30
40289;DHT22;28991;52.028;5.526;2022-09-12T07:50:32;24.60;54.20
40289;DHT22;28991;52.028;5.526;2022-09-12T07:52:58;24.50;54.20
40289;DHT22;28991;52.028;5.526;2022-09-12T07:55:23;24.50;54.30
40289;DHT22;28991;52.028;5.526;2022-09-12T07:57:52;24.50;54.30
40289;DHT22;28991;52.028;5.526;2022-09-12T08:00:18;24.50;55.00
40289;DHT22;28991;52.028;5.526;2022-09-12T08:02:44;24.50;54.60
40289;DHT22;28991;52.028;5.526;2022-09-12T08:05:10;24.60;54.60
40289;DHT22;28991;52.028;5.526;2022-09-12T08:07:35;24.60;54.60
40289;DHT22;28991;52.028;5.526;2022-09-12T08:10:01;24.70;54.70
40289;DHT22;28991;52.028;5.526;2022-09-12T08:12:27;24.70;54.50
40289;DHT22;28991;52.028;5.526;2022-09-12T08:14:52;24.80;54.50
40289;DHT22;28991;52.028;5.526;2022-09-12T08:17:18;25.00;54.50
40289;DHT22;28991;52.028;5.526;2022-09-12T08:19:44;24.90;54.30
40289;DHT22;28991;52.028;5.526;2022-09-12T08:22:10;25.00;54.20
40289;DHT22;28991;52.028;5.526;2022-09-12T08:24:37;25.00;54.20
40289;DHT22;28991;52.028;5.526;2022-09-12T08:27:04;25.00;54.20
40289;DHT22;28991;52.028;5.526;2022-09-12T08:29:30;25.10;54.20
40289;DHT22;28991;52.028;5.526;2022-09-12T08:31:56;25.10;54.20
40289;DHT22;28991;52.028;5.526;2022-09-12T08:34:21;25.20;54.00
40289;DHT22;28991;52.028;5.526;2022-09-12T08:36:47;25.20;54.00
40289;DHT22;28991;52.028;5.526;2022-09-12T08:39:13;25.20;54.10
40289;DHT22;28991;52.028;5.526;2022-09-12T08:41:45;25.30;54.20
40289;DHT22;28991;52.028;5.526;2022-09-12T08:49:33;25.30;54.20
40289;DHT22;28991;52.028;5.526;2022-09-12T08:54:53;25.40;54.10
40289;DHT22;28991;52.028;5.526;2022-09-12T08:57:21;25.40;54.00
40289;DHT22;28991;52.028;5.526;2022-09-12T08:59:47;25.40;53.90
40289;DHT22;28991;52.028;5.526;2022-09-12T09:05:22;25.50;53.70
40289;DHT22;28991;52.028;5.526;2022-09-12T09:08:15;25.50;53.50
40289;DHT22;28991;52.028;5.526;2022-09-12T09:10:52;25.50;53.50
40289;DHT22;28991;52.028;5.526;2022-09-12T09:14:01;25.50;53.40
40289;DHT22;28991;52.028;5.526;2022-09-12T09:16:49;25.50;53.30
40289;DHT22;28991;52.028;5.526;2022-09-12T09:19:30;25.50;53.30
40289;DHT22;28991;52.028;5.526;2022-09-12T09:22:02;25.50;53.30
40289;DHT22;28991;52.028;5.526;2022-09-12T09:24:48;25.50;53.30
40289;DHT22;28991;52.028;5.526;2022-09-12T09:27:32;25.50;53.30
40289;DHT22;28991;52.028;5.526;2022-09-12T09:30:00;25.60;53.40
40289;DHT22;28991;52.028;5.526;2022-09-12T09:32:30;25.60;53.40
40289;DHT22;28991;52.028;5.526;2022-09-12T09:34:58;25.70;53.50
40289;DHT22;28991;52.028;5.526;2022-09-12T09:37:41;25.60;53.50
40289;DHT22;28991;52.028;5.526;2022-09-12T09:42:55;25.70;53.60
40289;DHT22;28991;52.028;5.526;2022-09-12T09:45:24;25.70;53.70
40289;DHT22;28991;52.028;5.526;2022-09-12T09:48:00;25.70;53.70
40289;DHT22;28991;52.028;5.526;2022-09-12T09:50:29;27.40;54.90
40289;DHT22;28991;52.028;5.526;2022-09-12T09:52:56;25.60;53.70
40289;DHT22;28991;52.028;5.526;2022-09-12T09:55:29;25.60;53.70
40289;DHT22;28991;52.028;5.526;2022-09-12T09:57:56;25.70;53.80
40289;DHT22;28991;52.028;5.526;2022-09-12T10:00:26;25.70;53.70
40289;DHT22;28991;52.028;5.526;2022-09-12T10:02:59;25.70;53.70
40289;DHT22;28991;52.028;5.526;2022-09-12T10:05:25;25.60;53.60
40289;DHT22;28991;52.028;5.526;2022-09-12T10:07:52;25.70;53.70
40289;DHT22;28991;52.028;5.526;2022-09-12T10:10:19;25.60;53.60
40289;DHT22;28991;52.028;5.526;2022-09-12T10:12:47;25.70;54.20
40289;DHT22;28991;52.028;5.526;2022-09-12T10:15:22;25.70;53.70
40289;DHT22;28991;52.028;5.526;2022-09-12T10:17:51;25.70;54.20
40289;DHT22;28991;52.028;5.526;2022-09-12T10:20:31;25.70;53.70
40289;DHT22;28991;52.028;5.526;2022-09-12T10:23:00;25.70;53.70
40289;DHT22;28991;52.028;5.526;2022-09-12T10:25:27;25.70;53.60
40289;DHT22;28991;52.028;5.526;2022-09-12T10:27:58;25.70;53.70
40289;DHT22;28991;52.028;5.526;2022-09-12T10:30:25;25.50;53.40
40289;DHT22;28991;52.028;5.526;2022-09-12T10:32:53;25.60;53.50
40289;DHT22;28991;52.028;5.526;2022-09-12T10:35:24;25.70;53.50
40289;DHT22;28991;52.028;5.526;2022-09-12T10:38:04;25.70;53.50
40289;DHT22;28991;52.028;5.526;2022-09-12T10:40:37;25.70;54.00
40289;DHT22;28991;52.028;5.526;2022-09-12T10:43:23;25.70;53.40
40289;DHT22;28991;52.028;5.526;2022-09-12T10:45:51;25.70;53.50
40289;DHT22;28991;52.028;5.526;2022-09-12T10:50:52;25.70;53.40
40289;DHT22;28991;52.028;5.526;2022-09-12T10:53:23;25.80;53.20
40289;DHT22;28991;52.028;5.526;2022-09-12T11:01:32;25.80;52.90
40289;DHT22;28991;52.028;5.526;2022-09-12T11:04:04;25.80;52.80
40289;DHT22;28991;52.028;5.526;2022-09-12T11:06:42;25.80;52.40
40289;DHT22;28991;52.028;5.526;2022-09-12T11:09:18;25.80;52.70
40289;DHT22;28991;52.028;5.526;2022-09-12T11:17:50;25.90;52.50
40289;DHT22;28991;52.028;5.526;2022-09-12T11:21:21;25.90;52.50
40289;DHT22;28991;52.028;5.526;2022-09-12T11:35:15;25.90;52.20
40289;DHT22;28991;52.028;5.526;2022-09-12T11:40:26;25.90;52.20
40289;DHT22;28991;52.028;5.526;2022-09-12T11:42:57;25.90;51.50
40289;DHT22;28991;52.028;5.526;2022-09-12T11:45:43;26.00;52.30
40289;DHT22;28991;52.028;5.526;2022-09-12T11:51:19;25.80;51.90
40289;DHT22;28991;52.028;5.526;2022-09-12T11:54:15;25.80;51.90
40289;DHT22;28991;52.028;5.526;2022-09-12T11:56:43;25.80;51.90
40289;DHT22;28991;52.028;5.526;2022-09-12T11:59:28;25.80;51.70
40289;DHT22;28991;52.028;5.526;2022-09-12T12:01:57;25.80;51.80
40289;DHT22;28991;52.028;5.526;2022-09-12T12:04:36;25.80;51.80
40289;DHT22;28991;52.028;5.526;2022-09-12T12:07:06;25.80;51.70
40289;DHT22;28991;52.028;5.526;2022-09-12T12:09:32;25.80;51.80
40289;DHT22;28991;52.028;5.526;2022-09-12T12:12:02;25.80;51.50
40289;DHT22;28991;52.028;5.526;2022-09-12T12:14:40;25.80;51.70
40289;DHT22;28991;52.028;5.526;2022-09-12T12:17:15;25.70;51.60
40289;DHT22;28991;52.028;5.526;2022-09-12T12:19:41;25.70;51.60
40289;DHT22;28991;52.028;5.526;2022-09-12T12:22:17;25.70;51.50
40289;DHT22;28991;52.028;5.526;2022-09-12T12:27:47;25.70;51.60
40289;DHT22;28991;52.028;5.526;2022-09-12T12:38:01;25.60;51.50
40289;DHT22;28991;52.028;5.526;2022-09-12T12:40:29;25.60;51.60
40289;DHT22;28991;52.028;5.526;2022-09-12T12:42:56;25.60;51.50
40289;DHT22;28991;52.028;5.526;2022-09-12T12:47:57;25.60;51.70
40289;DHT22;28991;52.028;5.526;2022-09-12T12:50:27;25.60;51.60
40289;DHT22;28991;52.028;5.526;2022-09-12T12:53:19;25.70;51.70
40289;DHT22;28991;52.028;5.526;2022-09-12T12:55:49;25.70;51.70
40289;DHT22;28991;52.028;5.526;2022-09-12T12:58:30;25.60;51.60
40289;DHT22;28991;52.028;5.526;2022-09-12T13:01:20;25.60;51.50
40289;DHT22;28991;52.028;5.526;2022-09-12T13:03:59;25.70;51.70
40289;DHT22;28991;52.028;5.526;2022-09-12T13:06:42;25.70;51.50
40289;DHT22;28991;52.028;5.526;2022-09-12T13:12:06;25.60;51.50
40289;DHT22;28991;52.028;5.526;2022-09-12T13:17:18;25.60;51.00
40289;DHT22;28991;52.028;5.526;2022-09-12T13:19:47;25.60;51.20
40289;DHT22;28991;52.028;5.526;2022-09-12T13:22:13;25.50;50.20
40289;DHT22;28991;52.028;5.526;2022-09-12T13:24:47;25.60;50.00
40289;DHT22;28991;52.028;5.526;2022-09-12T13:27:39;25.50;50.10
40289;DHT22;28991;52.028;5.526;2022-09-12T13:30:20;25.50;49.60
40289;DHT22;28991;52.028;5.526;2022-09-12T13:32:46;25.50;50.10
40289;DHT22;28991;52.028;5.526;2022-09-12T13:36:06;25.50;50.10
40289;DHT22;28991;52.028;5.526;2022-09-12T13:43:43;25.50;50.30
40289;DHT22;28991;52.028;5.526;2022-09-12T13:46:15;25.50;50.30
40289;DHT22;28991;52.028;5.526;2022-09-12T13:48:41;25.50;50.20
40289;DHT22;28991;52.028;5.526;2022-09-12T13:51:24;25.50;50.40
40289;DHT22;28991;52.028;5.526;2022-09-12T13:53:52;25.50;50.20
40289;DHT22;28991;52.028;5.526;2022-09-12T13:56:20;25.50;50.00
40289;DHT22;28991;52.028;5.526;2022-09-12T13:58:56;25.50;50.20
40289;DHT22;28991;52.028;5.526;2022-09-12T14:01:24;25.50;50.10
40289;DHT22;28991;52.028;5.526;2022-09-12T14:04:12;25.40;50.00
40289;DHT22;28991;52.028;5.526;2022-09-12T14:06:59;25.70;50.40
40289;DHT22;28991;52.028;5.526;2022-09-12T14:09:33;25.40;50.10
40289;DHT22;28991;52.028;5.526;2022-09-12T14:12:03;25.40;50.20
40289;DHT22;28991;52.028;5.526;2022-09-12T14:14:35;25.40;50.10
40289;DHT22;28991;52.028;5.526;2022-09-12T14:17:26;25.40;50.00
40289;DHT22;28991;52.028;5.526;2022-09-12T14:19:57;25.40;49.90
40289;DHT22;28991;52.028;5.526;2022-09-12T14:22:24;25.50;50.10
40289;DHT22;28991;52.028;5.526;2022-09-12T14:24:54;25.50;50.10
40289;DHT22;28991;52.028;5.526;2022-09-12T14:27:41;25.50;50.00
40289;DHT22;28991;52.028;5.526;2022-09-12T14:35:27;25.50;49.90
40289;DHT22;28991;52.028;5.526;2022-09-12T14:37:53;25.50;50.00
40289;DHT22;28991;52.028;5.526;2022-09-12T14:40:21;25.40;49.90
40289;DHT22;28991;52.028;5.526;2022-09-12T14:42:49;25.50;50.00
40289;DHT22;28991;52.028;5.526;2022-09-12T14:45:22;25.40;49.90
40289;DHT22;28991;52.028;5.526;2022-09-12T14:47:50;25.30;49.90
40289;DHT22;28991;52.028;5.526;2022-09-12T14:50:21;25.40;49.90
40289;DHT22;28991;52.028;5.526;2022-09-12T14:53:02;25.40;49.90
40289;DHT22;28991;52.028;5.526;2022-09-12T14:55:30;25.40;49.90
40289;DHT22;28991;52.028;5.526;2022-09-12T14:58:21;25.40;49.90
40289;DHT22;28991;52.028;5.526;2022-09-12T15:00:56;25.30;49.80
40289;DHT22;28991;52.028;5.526;2022-09-12T15:03:37;25.40;49.80
40289;DHT22;28991;52.028;5.526;2022-09-12T15:06:32;25.30;49.80
40289;DHT22;28991;52.028;5.526;2022-09-12T15:09:05;25.30;49.80
40289;DHT22;28991;52.028;5.526;2022-09-12T15:11:31;25.30;49.80
40289;DHT22;28991;52.028;5.526;2022-09-12T15:14:05;25.30;49.80
40289;DHT22;28991;52.028;5.526;2022-09-12T15:16:30;25.40;49.80
40289;DHT22;28991;52.028;5.526;2022-09-12T15:18:56;25.30;49.80
40289;DHT22;28991;52.028;5.526;2022-09-12T15:21:21;25.30;49.80
40289;DHT22;28991;52.028;5.526;2022-09-12T15:23:51;25.70;50.10
40289;DHT22;28991;52.028;5.526;2022-09-12T15:26:19;25.20;49.70
40289;DHT22;28991;52.028;5.526;2022-09-12T15:28:44;25.20;49.80
40289;DHT22;28991;52.028;5.526;2022-09-12T15:33:44;25.20;49.80
40289;DHT22;28991;52.028;5.526;2022-09-12T15:36:13;25.20;49.80
40289;DHT22;28991;52.028;5.526;2022-09-12T15:38:39;25.20;49.80
40289;DHT22;28991;52.028;5.526;2022-09-12T15:41:13;25.20;49.90
40289;DHT22;28991;52.028;5.526;2022-09-12T15:43:39;25.30;50.00
40289;DHT22;28991;52.028;5.526;2022-09-12T15:46:04;25.20;49.90
40289;DHT22;28991;52.028;5.526;2022-09-12T15:48:31;25.10;49.80
40289;DHT22;28991;52.028;5.526;2022-09-12T15:50:57;25.10;49.80
40289;DHT22;28991;52.028;5.526;2022-09-12T15:53:26;25.10;49.80
40289;DHT22;28991;52.028;5.526;2022-09-12T15:55:52;25.20;49.80
40289;DHT22;28991;52.028;5.526;2022-09-12T15:58:17;25.30;49.90
40289;DHT22;28991;52.028;5.526;2022-09-12T16:00:43;25.00;49.70
40289;DHT22;28991;52.028;5.526;2022-09-12T16:03:20;25.20;49.80
40289;DHT22;28991;52.028;5.526;2022-09-12T16:05:47;25.10;49.80
40289;DHT22;28991;52.028;5.526;2022-09-12T16:08:12;25.20;49.90
40289;DHT22;28991;52.028;5.526;2022-09-12T16:10:38;25.10;49.90
40289;DHT22;28991;52.028;5.526;2022-09-12T16:13:06;25.20;50.00
40289;DHT22;28991;52.028;5.526;2022-09-12T16:15:32;25.10;50.00
40289;DHT22;28991;52.028;5.526;2022-09-12T16:17:57;25.20;50.00
40289;DHT22;28991;52.028;5.526;2022-09-12T16:20:23;25.20;50.00
40289;DHT22;28991;52.028;5.526;2022-09-12T16:22:50;25.20;50.10
40289;DHT22;28991;52.028;5.526;2022-09-12T16:25:15;25.70;50.40
40289;DHT22;28991;52.028;5.526;2022-09-12T16:27:41;25.20;50.10
40289;DHT22;28991;52.028;5.526;2022-09-12T16:30:08;25.20;50.10
40289;DHT22;28991;52.028;5.526;2022-09-12T16:32:34;25.20;50.10
40289;DHT22;28991;52.028;5.526;2022-09-12T16:34:59;25.30;50.20
40289;DHT22;28991;52.028;5.526;2022-09-12T16:37:25;25.30;50.30
40289;DHT22;28991;52.028;5.526;2022-09-12T16:39:51;25.10;50.10
40289;DHT22;28991;52.028;5.526;2022-09-12T16:42:17;25.20;50.20
40289;DHT22;28991;52.028;5.526;2022-09-12T16:44:44;25.20;50.20
40289;DHT22;28991;52.028;5.526;2022-09-12T16:47:10;25.20;50.30
40289;DHT22;28991;52.028;5.526;2022-09-12T16:49:36;25.30;50.40
40289;DHT22;28991;52.028;5.526;2022-09-12T16:52:02;25.20;50.40
40289;DHT22;28991;52.028;5.526;2022-09-12T16:54:27;25.20;50.40
40289;DHT22;28991;52.028;5.526;2022-09-12T16:56:53;25.30;50.50
40289;DHT22;28991;52.028;5.526;2022-09-12T16:59:18;25.20;50.40
40289;DHT22;28991;52.028;5.526;2022-09-12T17:01:44;25.10;50.40
40289;DHT22;28991;52.028;5.526;2022-09-12T17:04:12;25.20;50.50
40289;DHT22;28991;52.028;5.526;2022-09-12T17:06:38;25.20;50.50
40289;DHT22;28991;52.028;5.526;2022-09-12T17:09:04;25.20;50.50
40289;DHT22;28991;52.028;5.526;2022-09-12T17:11:35;25.10;50.50
40289;DHT22;28991;52.028;5.526;2022-09-12T17:14:02;25.20;50.60
40289;DHT22;28991;52.028;5.526;2022-09-12T17:16:31;25.10;50.50
40289;DHT22;28991;52.028;5.526;2022-09-12T17:18:56;25.20;50.70
40289;DHT22;28991;52.028;5.526;2022-09-12T17:21:22;25.10;50.60
40289;DHT22;28991;52.028;5.526;2022-09-12T17:23:48;25.10;50.60
40289;DHT22;28991;52.028;5.526;2022-09-12T17:26:14;25.10;50.70
40289;DHT22;28991;52.028;5.526;2022-09-12T17:28:39;25.20;50.80
40289;DHT22;28991;52.028;5.526;2022-09-12T17:31:08;25.10;50.70
40289;DHT22;28991;52.028;5.526;2022-09-12T17:33:34;25.10;50.80
40289;DHT22;28991;52.028;5.526;2022-09-12T17:36:11;25.10;50.80
40289;DHT22;28991;52.028;5.526;2022-09-12T17:38:39;25.10;50.80
40289;DHT22;28991;52.028;5.526;2022-09-12T17:41:12;25.10;50.80
40289;DHT22;28991;52.028;5.526;2022-09-12T17:43:41;25.10;50.90
40289;DHT22;28991;52.028;5.526;2022-09-12T17:46:07;25.10;50.90